Time;durP1;ratioP1;P1;durP2;ratioP2;P2;SDS_P1;SDS_P2;PMS_P1;PMS_P2;Temp;Humidity;BMP_temperature;BMP_pressure;BME280_temperature;BME280_humidity;BME280_pressure;Samples;Min_cycle;Max_cycle;Signal;HPM_P1;HPM_P2
2022/09/05 00:00:09;;;;;;;;;;;16.80;99.90;;;;;;5085528;28;20004;-72
2022/09/05 00:02:38;;;;;;;;;;;16.70;99.90;;;;;;5105250;28;19941;-72
2022/09/05 00:05:16;;;;;;;;;;;16.80;99.90;;;;;;5114404;28;19908;-72
2022/09/05 00:08:02;;;;;;;;;;;16.70;99.90;;;;;;5114048;28;19916;-73
2022/09/05 00:10:27;;;;;;;;;;;16.70;99.90;;;;;;5101105;28;20039;-72
2022/09/05 00:12:55;;;;;;;;;;;16.70;99.90;;;;;;5115170;28;20007;-72
2022/09/05 00:15:29;;;;;;;;;;;16.70;99.90;;;;;;5114325;28;19975;-72
2022/09/05 00:18:19;;;;;;;;;;;16.60;99.90;;;;;;5098688;28;19924;-72
2022/09/05 00:20:47;;;;;;;;;;;16.50;99.90;;;;;;5113246;28;19916;-72
2022/09/05 00:23:16;;;;;;;;;;;16.50;99.90;;;;;;5102616;28;19999;-72
2022/09/05 00:25:50;;;;;;;;;;;16.50;99.90;;;;;;5112716;28;19955;-71
2022/09/05 00:28:19;;;;;;;;;;;16.50;99.90;;;;;;5084987;28;20015;-72
2022/09/05 00:30:59;;;;;;;;;;;16.50;99.90;;;;;;5087639;28;19919;-72
2022/09/05 00:33:31;;;;;;;;;;;16.40;99.90;;;;;;5110652;28;20272;-71
2022/09/05 00:36:05;;;;;;;;;;;16.40;99.90;;;;;;5100286;28;20297;-72
2022/09/05 00:38:31;;;;;;;;;;;16.30;99.90;;;;;;5092846;28;19959;-72
2022/09/05 00:40:58;;;;;;;;;;;16.20;99.90;;;;;;5111764;28;20311;-71
2022/09/05 00:43:37;;;;;;;;;;;16.20;99.90;;;;;;5108188;28;19915;-72
2022/09/05 00:46:03;;;;;;;;;;;16.10;99.90;;;;;;5114092;28;19914;-72
2022/09/05 00:48:47;;;;;;;;;;;16.00;99.90;;;;;;5099998;28;19918;-72
2022/09/05 00:51:25;;;;;;;;;;;16.00;99.90;;;;;;5112837;28;19915;-71
2022/09/05 00:53:55;;;;;;;;;;;16.00;99.90;;;;;;5105954;28;19943;-71
2022/09/05 00:56:39;;;;;;;;;;;16.00;99.90;;;;;;5090464;28;19935;-72
2022/09/05 00:59:24;;;;;;;;;;;16.00;99.90;;;;;;5094028;28;20010;-71
2022/09/05 01:01:57;;;;;;;;;;;16.00;99.90;;;;;;5106813;28;20222;-72
2022/09/05 01:04:37;;;;;;;;;;;16.00;99.90;;;;;;5108418;28;20218;-72
2022/09/05 01:07:14;;;;;;;;;;;16.00;99.90;;;;;;5112474;28;20084;-71
2022/09/05 01:10:02;;;;;;;;;;;16.10;99.90;;;;;;5101903;28;19995;-71
2022/09/05 01:12:34;;;;;;;;;;;16.10;99.90;;;;;;5111669;28;19915;-71
2022/09/05 01:15:13;;;;;;;;;;;16.10;99.90;;;;;;5093635;28;19919;-72
2022/09/05 01:17:51;;;;;;;;;;;16.10;99.90;;;;;;5103275;28;19920;-71
2022/09/05 01:20:26;;;;;;;;;;;16.20;99.90;;;;;;5099428;28;19916;-71
2022/09/05 01:23:11;;;;;;;;;;;16.20;99.90;;;;;;5111760;28;19934;-72
2022/09/05 01:25:48;;;;;;;;;;;16.10;99.90;;;;;;5111578;28;19918;-72
2022/09/05 01:28:13;;;;;;;;;;;16.10;99.90;;;;;;5109912;28;20199;-72
2022/09/05 01:30:56;;;;;;;;;;;16.00;99.90;;;;;;5113942;28;19934;-72
2022/09/05 01:33:42;;;;;;;;;;;16.00;99.90;;;;;;5103842;28;19938;-71
2022/09/05 01:36:08;;;;;;;;;;;15.90;99.90;;;;;;5110010;28;19922;-72
2022/09/05 01:38:50;;;;;;;;;;;16.00;99.90;;;;;;5110688;28;19916;-71
2022/09/05 01:41:20;;;;;;;;;;;15.90;99.90;;;;;;5113975;28;19938;-71
2022/09/05 01:44:01;;;;;;;;;;;16.00;99.90;;;;;;5115390;28;20002;-72
2022/09/05 01:46:34;;;;;;;;;;;16.00;99.90;;;;;;5103704;28;19962;-72
2022/09/05 01:49:23;;;;;;;;;;;15.90;99.90;;;;;;5107560;28;19908;-72
2022/09/05 01:51:55;;;;;;;;;;;15.90;99.90;;;;;;5115620;28;20337;-71
2022/09/05 01:54:20;;;;;;;;;;;15.90;99.90;;;;;;5116462;28;19915;-72
2022/09/05 01:57:01;;;;;;;;;;;15.80;99.90;;;;;;5114895;28;19915;-72
2022/09/05 01:59:32;;;;;;;;;;;15.80;99.90;;;;;;5105252;28;19923;-72
2022/09/05 02:02:11;;;;;;;;;;;15.80;99.90;;;;;;5115239;28;19919;-71
2022/09/05 02:04:56;;;;;;;;;;;15.70;99.90;;;;;;5116131;28;20245;-72
2022/09/05 02:07:21;;;;;;;;;;;15.70;99.90;;;;;;5104312;28;21655;-72
2022/09/05 02:10:22;;;;;;;;;;;15.60;99.90;;;;;;5116014;28;20218;-72
2022/09/05 02:12:51;;;;;;;;;;;15.50;99.90;;;;;;5024050;28;19917;-71
2022/09/05 02:15:28;;;;;;;;;;;15.40;99.90;;;;;;5099626;28;20349;-71
2022/09/05 02:17:57;;;;;;;;;;;15.30;99.90;;;;;;5116945;28;19924;-71
2022/09/05 02:20:25;;;;;;;;;;;15.30;99.90;;;;;;5115489;28;19916;-72
2022/09/05 02:23:13;;;;;;;;;;;15.20;99.90;;;;;;5116993;28;19916;-72
2022/09/05 02:25:43;;;;;;;;;;;15.20;99.90;;;;;;5113927;28;19923;-71
2022/09/05 02:28:35;;;;;;;;;;;15.30;99.90;;;;;;5113330;28;20048;-72
2022/09/05 02:31:03;;;;;;;;;;;15.30;99.90;;;;;;5109459;28;20232;-72
2022/09/05 02:33:32;;;;;;;;;;;15.30;99.90;;;;;;5109376;28;20180;-71
2022/09/05 02:36:12;;;;;;;;;;;15.30;99.90;;;;;;5114065;28;20484;-72
2022/09/05 02:38:43;;;;;;;;;;;15.30;99.90;;;;;;5097063;28;19916;-71
2022/09/05 02:41:18;;;;;;;;;;;15.20;99.90;;;;;;5104479;28;20291;-71
2022/09/05 02:44:03;;;;;;;;;;;15.20;99.90;;;;;;5106576;28;19916;-71
2022/09/05 02:46:33;;;;;;;;;;;15.30;99.90;;;;;;5081664;28;19908;-72
2022/09/05 02:49:10;;;;;;;;;;;15.30;99.90;;;;;;5106166;28;20330;-72
2022/09/05 02:51:38;;;;;;;;;;;15.30;99.90;;;;;;5112741;28;19915;-72
2022/09/05 02:54:07;;;;;;;;;;;15.20;99.90;;;;;;5096972;28;19912;-71
2022/09/05 02:56:41;;;;;;;;;;;15.30;99.90;;;;;;5103443;28;20003;-72
2022/09/05 02:59:10;;;;;;;;;;;15.40;99.90;;;;;;5078455;28;19923;-72
2022/09/05 03:01:35;;;;;;;;;;;15.50;99.90;;;;;;5105441;28;19951;-71
2022/09/05 03:04:21;;;;;;;;;;;15.50;99.90;;;;;;5093838;28;20372;-71
2022/09/05 03:06:55;;;;;;;;;;;15.60;99.90;;;;;;5088319;28;19912;-71
2022/09/05 03:09:39;;;;;;;;;;;15.70;99.90;;;;;;5115840;28;20096;-72
2022/09/05 03:12:05;;;;;;;;;;;15.80;99.90;;;;;;5106012;28;20362;-71
2022/09/05 03:14:33;;;;;;;;;;;15.90;99.90;;;;;;5108786;28;19992;-72
2022/09/05 03:17:05;;;;;;;;;;;15.90;99.90;;;;;;5114686;28;19957;-72
2022/09/05 03:19:49;;;;;;;;;;;15.90;99.90;;;;;;5094739;28;20302;-72
2022/09/05 03:22:32;;;;;;;;;;;15.90;99.90;;;;;;5108532;28;19912;-71
2022/09/05 03:25:16;;;;;;;;;;;15.90;99.90;;;;;;5101535;28;20306;-72
2022/09/05 03:28:02;;;;;;;;;;;15.80;99.90;;;;;;5082709;28;19931;-72
2022/09/05 03:30:42;;;;;;;;;;;15.80;99.90;;;;;;5098973;28;20003;-72
2022/09/05 03:33:26;;;;;;;;;;;15.60;99.90;;;;;;5088618;28;19916;-72
2022/09/05 03:36:08;;;;;;;;;;;15.50;99.90;;;;;;5112684;28;19920;-71
2022/09/05 03:38:36;;;;;;;;;;;15.40;99.90;;;;;;5097345;28;19962;-71
2022/09/05 03:41:17;;;;;;;;;;;15.20;99.90;;;;;;5115448;28;19916;-72
2022/09/05 03:43:42;;;;;;;;;;;15.20;99.90;;;;;;5096745;28;19915;-72
2022/09/05 03:46:11;;;;;;;;;;;15.10;99.90;;;;;;5113486;28;19912;-72
2022/09/05 03:49:12;;;;;;;;;;;15.10;99.90;;;;;;5100208;28;19951;-72
2022/09/05 03:52:10;;;;;;;;;;;15.00;99.90;;;;;;5026541;28;19917;-71
2022/09/05 03:54:38;;;;;;;;;;;14.80;99.90;;;;;;5012579;28;19945;-72
2022/09/05 03:57:23;;;;;;;;;;;14.80;99.90;;;;;;5010254;28;19913;-72
2022/09/05 04:00:03;;;;;;;;;;;14.80;99.90;;;;;;5008341;28;19925;-72
2022/09/05 04:02:30;;;;;;;;;;;14.80;99.90;;;;;;5018613;28;19940;-72
2022/09/05 04:05:03;;;;;;;;;;;14.70;99.90;;;;;;5018827;28;20071;-71
2022/09/05 04:07:31;;;;;;;;;;;14.80;99.90;;;;;;5021086;28;19913;-72
2022/09/05 04:09:57;;;;;;;;;;;14.70;99.90;;;;;;5012138;28;19998;-71
2022/09/05 04:12:34;;;;;;;;;;;14.70;99.90;;;;;;5013601;28;19978;-72
2022/09/05 04:15:10;;;;;;;;;;;14.70;99.90;;;;;;5011656;28;19916;-71
2022/09/05 04:17:39;;;;;;;;;;;14.80;99.90;;;;;;5011525;28;19925;-72
2022/09/05 04:20:10;;;;;;;;;;;14.80;99.90;;;;;;5011712;28;19913;-71
2022/09/05 04:23:05;;;;;;;;;;;14.90;99.90;;;;;;5011865;28;20043;-72
2022/09/05 04:25:50;;;;;;;;;;;14.80;99.90;;;;;;5010785;28;20396;-73
2022/09/05 04:28:37;;;;;;;;;;;14.80;99.90;;;;;;5012211;28;19913;-72
2022/09/05 04:31:19;;;;;;;;;;;14.90;99.90;;;;;;5066886;28;19912;-72
2022/09/05 04:34:03;;;;;;;;;;;14.90;99.90;;;;;;5102716;28;20079;-72
2022/09/05 04:36:31;;;;;;;;;;;14.80;99.90;;;;;;5102745;28;20015;-71
2022/09/05 04:39:16;;;;;;;;;;;14.80;99.90;;;;;;5078545;28;20315;-72
2022/09/05 04:41:46;;;;;;;;;;;14.80;99.90;;;;;;5093976;28;19912;-71
2022/09/05 04:44:16;;;;;;;;;;;14.80;99.90;;;;;;5085897;28;19920;-71
2022/09/05 04:46:46;;;;;;;;;;;14.80;99.90;;;;;;5081760;28;19925;-71
2022/09/05 04:49:14;;;;;;;;;;;14.80;99.90;;;;;;5106514;28;19924;-72
2022/09/05 04:52:05;;;;;;;;;;;14.90;99.90;;;;;;5102116;28;19911;-72
2022/09/05 04:54:40;;;;;;;;;;;14.90;99.90;;;;;;5100334;28;19912;-72
2022/09/05 04:57:06;;;;;;;;;;;14.90;99.90;;;;;;5109362;28;19923;-72
2022/09/05 04:59:40;;;;;;;;;;;14.90;99.90;;;;;;5084354;28;19923;-72
2022/09/05 05:02:24;;;;;;;;;;;14.80;99.90;;;;;;5088001;28;20337;-72
2022/09/05 05:04:57;;;;;;;;;;;14.80;99.90;;;;;;5099474;28;19912;-72
2022/09/05 05:07:46;;;;;;;;;;;14.80;99.90;;;;;;5100708;28;20036;-72
2022/09/05 05:10:18;;;;;;;;;;;14.80;99.90;;;;;;5089871;28;19951;-72
2022/09/05 05:13:04;;;;;;;;;;;14.80;99.90;;;;;;5101817;28;20266;-72
2022/09/05 05:15:30;;;;;;;;;;;14.80;99.90;;;;;;5106928;28;19919;-74
2022/09/05 05:18:09;;;;;;;;;;;14.80;99.90;;;;;;5108581;28;20484;-73
2022/09/05 05:20:53;;;;;;;;;;;14.90;99.90;;;;;;5106062;28;19916;-73
2022/09/05 05:23:28;;;;;;;;;;;14.90;99.90;;;;;;5114375;28;19908;-72
2022/09/05 05:25:55;;;;;;;;;;;15.00;99.90;;;;;;5107619;28;19998;-72
2022/09/05 05:28:35;;;;;;;;;;;15.00;99.90;;;;;;5112965;28;19916;-72
2022/09/05 05:31:12;;;;;;;;;;;15.00;99.90;;;;;;5108433;28;19954;-73
2022/09/05 05:33:38;;;;;;;;;;;15.10;99.90;;;;;;5106922;28;19954;-72
2022/09/05 05:36:07;;;;;;;;;;;15.10;99.90;;;;;;5108157;28;19911;-73
2022/09/05 05:38:33;;;;;;;;;;;15.10;99.90;;;;;;5092843;28;20701;-72
2022/09/05 05:41:19;;;;;;;;;;;15.10;99.90;;;;;;5088751;28;20420;-72
2022/09/05 05:43:45;;;;;;;;;;;15.10;99.90;;;;;;5090162;28;19997;-73
2022/09/05 05:46:14;;;;;;;;;;;15.10;99.90;;;;;;5105608;28;19957;-73
2022/09/05 05:48:40;;;;;;;;;;;15.30;99.90;;;;;;5109734;28;19916;-72
2022/09/05 05:51:10;;;;;;;;;;;15.50;99.90;;;;;;5100074;28;20222;-73
2022/09/05 05:53:41;;;;;;;;;;;15.60;99.90;;;;;;5103086;28;20310;-72
2022/09/05 05:56:20;;;;;;;;;;;15.60;99.90;;;;;;5104862;28;19958;-72
2022/09/05 05:58:46;;;;;;;;;;;15.70;99.90;;;;;;5096562;28;19924;-74
2022/09/05 06:01:23;;;;;;;;;;;15.70;99.90;;;;;;5106571;28;19995;-73
2022/09/05 06:04:09;;;;;;;;;;;15.90;99.90;;;;;;5097902;28;19939;-72
2022/09/05 06:06:43;;;;;;;;;;;16.00;99.90;;;;;;5073747;28;19912;-72
2022/09/05 06:09:24;;;;;;;;;;;16.10;99.90;;;;;;5081542;28;19920;-72
2022/09/05 06:12:05;;;;;;;;;;;16.10;99.90;;;;;;5109307;28;19955;-73
2022/09/05 06:14:39;;;;;;;;;;;16.30;99.90;;;;;;5098968;28;19916;-73
2022/09/05 06:17:08;;;;;;;;;;;16.40;99.90;;;;;;5095251;28;19961;-73
2022/09/05 06:19:52;;;;;;;;;;;16.60;99.90;;;;;;5105089;28;19922;-73
2022/09/05 06:22:26;;;;;;;;;;;16.80;99.90;;;;;;5107361;28;19916;-72
2022/09/05 06:24:56;;;;;;;;;;;17.00;99.90;;;;;;5107684;27;19972;-73
2022/09/05 06:27:25;;;;;;;;;;;17.10;99.90;;;;;;5103577;28;20292;-73
2022/09/05 06:29:57;;;;;;;;;;;17.30;99.90;;;;;;5085035;28;20226;-73
2022/09/05 06:32:25;;;;;;;;;;;17.40;99.90;;;;;;5101934;28;20310;-74
2022/09/05 06:34:51;;;;;;;;;;;17.60;99.90;;;;;;5105147;28;19994;-74
2022/09/05 06:37:26;;;;;;;;;;;17.80;99.90;;;;;;5085001;28;19916;-75
2022/09/05 06:39:52;;;;;;;;;;;17.90;99.90;;;;;;5102988;28;19968;-74
2022/09/05 06:42:17;;;;;;;;;;;18.00;99.90;;;;;;5107044;28;19916;-73
2022/09/05 06:44:52;;;;;;;;;;;18.20;99.90;;;;;;5109819;27;19956;-74
2022/09/05 06:47:19;;;;;;;;;;;18.30;99.90;;;;;;5095124;28;20261;-73
2022/09/05 06:50:04;;;;;;;;;;;18.40;99.90;;;;;;5103122;28;19947;-73
2022/09/05 06:52:38;;;;;;;;;;;18.60;99.90;;;;;;5103727;28;19912;-73
2022/09/05 06:55:19;;;;;;;;;;;18.70;99.90;;;;;;5096215;28;20245;-74
2022/09/05 06:58:03;;;;;;;;;;;18.90;99.90;;;;;;5104352;28;19908;-73
2022/09/05 07:00:43;;;;;;;;;;;19.20;99.90;;;;;;5076991;28;19916;-73
2022/09/05 07:03:08;;;;;;;;;;;19.50;99.90;;;;;;5082869;28;20221;-73
2022/09/05 07:05:43;;;;;;;;;;;19.90;99.90;;;;;;5100957;28;20010;-75
2022/09/05 07:08:16;;;;;;;;;;;20.40;99.90;;;;;;5077634;28;19908;-72
2022/09/05 07:10:46;;;;;;;;;;;20.90;99.90;;;;;;5101976;28;19916;-74
2022/09/05 07:13:14;;;;;;;;;;;21.40;99.90;;;;;;5096348;28;19912;-73
2022/09/05 07:15:43;;;;;;;;;;;21.90;99.90;;;;;;5094896;28;20319;-73
2022/09/05 07:18:25;;;;;;;;;;;22.30;99.90;;;;;;5098011;28;20028;-74
2022/09/05 07:21:00;;;;;;;;;;;22.40;99.90;;;;;;5098916;28;19916;-74
2022/09/05 07:23:25;;;;;;;;;;;22.60;99.90;;;;;;5080277;28;20312;-74
2022/09/05 07:25:53;;;;;;;;;;;22.80;99.90;;;;;;5101033;28;19959;-74
2022/09/05 07:28:19;;;;;;;;;;;22.90;99.90;;;;;;5107579;28;19997;-72
2022/09/05 07:30:49;;;;;;;;;;;22.70;99.90;;;;;;5083730;28;19986;-72
2022/09/05 07:33:19;;;;;;;;;;;22.60;99.90;;;;;;5108994;28;19923;-75
2022/09/05 07:35:46;;;;;;;;;;;22.60;99.90;;;;;;5099634;28;19908;-73
2022/09/05 07:38:13;;;;;;;;;;;23.00;99.90;;;;;;5094568;28;19926;-73
2022/09/05 07:41:01;;;;;;;;;;;23.50;99.90;;;;;;5097927;28;19908;-75
2022/09/05 07:43:32;;;;;;;;;;;24.20;99.90;;;;;;5106043;28;19923;-75
2022/09/05 07:46:03;;;;;;;;;;;25.00;99.90;;;;;;5079712;28;19974;-75
2022/09/05 07:48:32;;;;;;;;;;;25.10;98.90;;;;;;5111950;28;19919;-76
2022/09/05 07:51:08;;;;;;;;;;;25.00;98.50;;;;;;5097395;28;20250;-75
2022/09/05 07:53:35;;;;;;;;;;;25.10;98.60;;;;;;5096943;28;19919;-74
2022/09/05 07:56:02;;;;;;;;;;;25.30;98.80;;;;;;5079558;28;20258;-74
2022/09/05 07:58:34;;;;;;;;;;;25.70;98.30;;;;;;5090168;28;20081;-75
2022/09/05 08:01:00;;;;;;;;;;;26.10;97.70;;;;;;5086423;28;20219;-73
2022/09/05 08:03:27;;;;;;;;;;;26.50;98.70;;;;;;5084370;28;19920;-73
2022/09/05 08:05:55;;;;;;;;;;;26.90;97.40;;;;;;5110235;28;19957;-74
2022/09/05 08:08:23;;;;;;;;;;;27.40;96.60;;;;;;5092852;28;19946;-75
2022/09/05 08:10:54;;;;;;;;;;;27.30;95.20;;;;;;5097374;28;20223;-74
2022/09/05 08:13:25;;;;;;;;;;;27.20;95.70;;;;;;5095848;28;19920;-74
2022/09/05 08:15:53;;;;;;;;;;;27.50;96.00;;;;;;5100982;28;19912;-77
2022/09/05 08:18:27;;;;;;;;;;;27.50;95.00;;;;;;5098682;28;20431;-77
2022/09/05 08:20:53;;;;;;;;;;;27.60;94.80;;;;;;5111978;28;19916;-74
2022/09/05 08:23:30;;;;;;;;;;;27.60;95.70;;;;;;5102430;28;19969;-74
2022/09/05 08:25:58;;;;;;;;;;;28.10;96.60;;;;;;5108908;27;19923;-73
2022/09/05 08:28:33;;;;;;;;;;;28.60;93.80;;;;;;5113370;28;19994;-74
2022/09/05 08:31:19;;;;;;;;;;;29.00;94.60;;;;;;5084854;28;19948;-75
2022/09/05 08:33:46;;;;;;;;;;;28.90;92.60;;;;;;5096738;28;20000;-74
2022/09/05 08:36:39;;;;;;;;;;;28.70;93.30;;;;;;5083751;28;19912;-75
2022/09/05 08:39:06;;;;;;;;;;;28.60;93.30;;;;;;5080530;28;19920;-76
2022/09/05 08:42:04;;;;;;;;;;;28.50;92.20;;;;;;5103578;28;19915;-75
2022/09/05 08:44:44;;;;;;;;;;;28.20;92.90;;;;;;5011030;28;20052;-78
2022/09/05 08:47:17;;;;;;;;;;;28.00;92.90;;;;;;5008900;28;19928;-75
2022/09/05 08:49:48;;;;;;;;;;;28.00;92.90;;;;;;5027507;28;19917;-76
2022/09/05 08:52:29;;;;;;;;;;;27.90;92.70;;;;;;5012881;28;19946;-76
2022/09/05 08:55:27;;;;;;;;;;;28.00;92.60;;;;;;5029531;28;19913;-77
2022/09/05 08:58:15;;;;;;;;;;;28.00;92.00;;;;;;4968423;28;20790;-74
2022/09/05 09:00:58;;;;;;;;;;;28.00;92.30;;;;;;4955368;28;20001;-74
2022/09/05 09:03:29;;;;;;;;;;;28.10;92.90;;;;;;4964287;28;20293;-74
2022/09/05 09:05:54;;;;;;;;;;;28.30;92.70;;;;;;4943115;28;19945;-77
2022/09/05 09:08:23;;;;;;;;;;;28.50;91.50;;;;;;4972912;28;19918;-76
2022/09/05 09:10:54;;;;;;;;;;;28.60;91.40;;;;;;4963787;28;20008;-75
2022/09/05 09:13:33;;;;;;;;;;;28.60;92.10;;;;;;4959310;28;19977;-73
2022/09/05 09:16:08;;;;;;;;;;;28.70;92.70;;;;;;4975014;28;20296;-74
2022/09/05 09:18:58;;;;;;;;;;;28.90;91.50;;;;;;4971717;28;20051;-73
2022/09/05 09:21:26;;;;;;;;;;;29.10;91.20;;;;;;5048399;28;19916;-73
2022/09/05 09:23:54;;;;;;;;;;;29.20;91.00;;;;;;5030425;28;20403;-74
2022/09/05 09:26:26;;;;;;;;;;;29.30;90.90;;;;;;5040237;28;19917;-73
2022/09/05 09:29:01;;;;;;;;;;;29.40;91.30;;;;;;5037879;28;19921;-74
2022/09/05 09:31:30;;;;;;;;;;;29.70;91.90;;;;;;5036703;28;19960;-75
2022/09/05 09:34:02;;;;;;;;;;;29.80;91.10;;;;;;5083802;28;20309;-75
2022/09/05 09:36:43;;;;;;;;;;;30.10;90.80;;;;;;5106356;28;19915;-75
2022/09/05 09:39:20;;;;;;;;;;;30.30;90.50;;;;;;5103787;28;19969;-77
2022/09/05 09:41:53;;;;;;;;;;;30.50;90.90;;;;;;5114707;28;19916;-76
2022/09/05 09:44:37;;;;;;;;;;;30.80;90.10;;;;;;5105711;27;19958;-75
2022/09/05 09:47:07;;;;;;;;;;;31.10;90.30;;;;;;5089449;28;20024;-76
2022/09/05 09:49:36;;;;;;;;;;;31.20;88.80;;;;;;5103533;28;19924;-75
2022/09/05 09:52:18;;;;;;;;;;;31.00;89.00;;;;;;5109663;28;19908;-75
2022/09/05 09:54:55;;;;;;;;;;;31.00;87.10;;;;;;5101211;28;19908;-75
2022/09/05 09:57:24;;;;;;;;;;;31.00;87.90;;;;;;5099179;28;19931;-75
2022/09/05 10:00:03;;;;;;;;;;;31.20;87.90;;;;;;5078336;28;19939;-75
2022/09/05 10:02:44;;;;;;;;;;;31.20;85.90;;;;;;5077936;28;19919;-76
2022/09/05 10:05:33;;;;;;;;;;;31.10;86.00;;;;;;5092764;28;19912;-74
2022/09/05 10:08:19;;;;;;;;;;;31.20;87.60;;;;;;5078559;28;20004;-75
2022/09/05 10:10:44;;;;;;;;;;;31.20;85.80;;;;;;5103888;28;20008;-74
2022/09/05 10:13:29;;;;;;;;;;;31.30;85.80;;;;;;5090809;28;20003;-75
2022/09/05 10:16:13;;;;;;;;;;;31.20;84.30;;;;;;5105327;28;19916;-75
2022/09/05 10:18:39;;;;;;;;;;;31.20;84.40;;;;;;5086104;28;19973;-75
2022/09/05 10:21:24;;;;;;;;;;;31.30;85.80;;;;;;5088625;28;19920;-77
2022/09/05 10:24:05;;;;;;;;;;;31.40;86.60;;;;;;5083016;28;19918;-76
2022/09/05 10:26:40;;;;;;;;;;;31.70;84.80;;;;;;5080091;28;19989;-76
2022/09/05 10:29:12;;;;;;;;;;;31.60;85.10;;;;;;5095590;28;19915;-77
2022/09/05 10:32:05;;;;;;;;;;;31.70;84.30;;;;;;5098775;28;19916;-74
2022/09/05 10:34:54;;;;;;;;;;;31.60;83.90;;;;;;5097573;28;19927;-75
2022/09/05 10:37:20;;;;;;;;;;;31.40;83.60;;;;;;5086672;28;19908;-74
2022/09/05 10:39:49;;;;;;;;;;;31.40;84.70;;;;;;5076912;28;19972;-76
2022/09/05 10:42:15;;;;;;;;;;;31.60;83.30;;;;;;5075974;28;19912;-74
2022/09/05 10:44:51;;;;;;;;;;;31.60;85.40;;;;;;5105159;28;20203;-75
2022/09/05 10:47:26;;;;;;;;;;;31.80;84.00;;;;;;5098764;28;19923;-77
2022/09/05 10:50:10;;;;;;;;;;;31.90;83.20;;;;;;5112170;28;20222;-76
2022/09/05 10:52:54;;;;;;;;;;;31.90;82.80;;;;;;5090205;28;19927;-76
2022/09/05 10:55:24;;;;;;;;;;;31.90;82.50;;;;;;5095573;28;19912;-77
2022/09/05 10:58:02;;;;;;;;;;;31.70;82.90;;;;;;5107800;28;20386;-75
2022/09/05 11:00:37;;;;;;;;;;;31.70;81.10;;;;;;5092290;28;19911;-75
2022/09/05 11:03:03;;;;;;;;;;;31.80;82.70;;;;;;5089179;28;19916;-79
2022/09/05 11:05:36;;;;;;;;;;;31.80;81.60;;;;;;5087771;28;19922;-75
2022/09/05 11:08:02;;;;;;;;;;;31.80;81.80;;;;;;5101114;28;19916;-75
2022/09/05 11:10:37;;;;;;;;;;;31.90;80.70;;;;;;5095488;28;20402;-75
2022/09/05 11:13:35;;;;;;;;;;;31.80;80.60;;;;;;5091085;27;19916;-76
2022/09/05 11:16:15;;;;;;;;;;;31.80;78.40;;;;;;5042927;28;20433;-74
2022/09/05 11:18:49;;;;;;;;;;;31.50;80.40;;;;;;5044459;28;20327;-76
2022/09/05 11:21:27;;;;;;;;;;;31.20;79.10;;;;;;5041145;28;19920;-75
2022/09/05 11:23:54;;;;;;;;;;;31.20;80.10;;;;;;5026022;28;19924;-75
2022/09/05 11:26:41;;;;;;;;;;;31.30;80.70;;;;;;5028285;28;20213;-73
2022/09/05 11:29:26;;;;;;;;;;;31.40;80.00;;;;;;5050638;28;20262;-75
2022/09/05 11:31:55;;;;;;;;;;;31.00;78.50;;;;;;5047809;28;19917;-76
2022/09/05 11:34:30;;;;;;;;;;;30.30;79.40;;;;;;5050080;28;19915;-76
2022/09/05 11:37:00;;;;;;;;;;;29.80;80.90;;;;;;5049497;28;20371;-79
2022/09/05 11:39:31;;;;;;;;;;;29.40;80.00;;;;;;5046734;28;19956;-75
2022/09/05 11:42:19;;;;;;;;;;;29.20;83.10;;;;;;5030812;28;19929;-75
2022/09/05 11:45:00;;;;;;;;;;;29.10;83.00;;;;;;5018182;28;20056;-76
2022/09/05 11:47:25;;;;;;;;;;;29.10;84.70;;;;;;5035536;28;19996;-76
2022/09/05 11:49:51;;;;;;;;;;;29.50;83.90;;;;;;5038774;28;20012;-77
2022/09/05 11:52:32;;;;;;;;;;;29.80;83.50;;;;;;5086232;28;20253;-77
2022/09/05 11:55:16;;;;;;;;;;;30.00;81.40;;;;;;5102276;28;19912;-75
2022/09/05 11:58:00;;;;;;;;;;;30.10;81.70;;;;;;5088882;28;20031;-75
2022/09/05 12:00:33;;;;;;;;;;;30.30;81.50;;;;;;5098628;28;19923;-78
2022/09/05 12:03:25;;;;;;;;;;;30.50;81.10;;;;;;5101981;28;19916;-76
2022/09/05 12:05:54;;;;;;;;;;;30.50;81.10;;;;;;5096387;28;20006;-75
2022/09/05 12:08:23;;;;;;;;;;;30.60;81.20;;;;;;5093316;28;19912;-74
2022/09/05 12:11:07;;;;;;;;;;;30.80;82.90;;;;;;5093381;28;20318;-77
2022/09/05 12:13:34;;;;;;;;;;;31.00;81.40;;;;;;5076262;28;19912;-74
2022/09/05 12:16:00;;;;;;;;;;;30.80;81.40;;;;;;5093926;28;19957;-73
2022/09/05 12:18:45;;;;;;;;;;;30.50;80.30;;;;;;5077992;28;19928;-74
2022/09/05 12:21:13;;;;;;;;;;;30.10;81.10;;;;;;5098664;28;20341;-73
2022/09/05 12:23:57;;;;;;;;;;;29.90;83.50;;;;;;5083153;28;19927;-73
2022/09/05 12:26:31;;;;;;;;;;;29.90;83.40;;;;;;5101778;28;19915;-74
2022/09/05 12:29:07;;;;;;;;;;;29.90;84.20;;;;;;5083610;28;19916;-73
2022/09/05 12:31:37;;;;;;;;;;;29.80;83.50;;;;;;5080126;28;19913;-73
2022/09/05 12:34:08;;;;;;;;;;;29.60;83.20;;;;;;5100773;28;19923;-74
2022/09/05 12:36:40;;;;;;;;;;;29.60;84.40;;;;;;5107752;28;20262;-72
2022/09/05 12:39:25;;;;;;;;;;;29.60;85.50;;;;;;5093185;28;19913;-73
2022/09/05 12:41:59;;;;;;;;;;;29.80;85.00;;;;;;5080548;28;20196;-72
2022/09/05 12:44:27;;;;;;;;;;;30.00;84.50;;;;;;5097818;28;19916;-76
2022/09/05 12:47:01;;;;;;;;;;;30.10;82.40;;;;;;5094765;28;20268;-75
2022/09/05 12:49:43;;;;;;;;;;;30.10;83.70;;;;;;5084563;28;19916;-73
2022/09/05 12:52:15;;;;;;;;;;;30.20;83.60;;;;;;5094163;28;19956;-75
2022/09/05 12:54:49;;;;;;;;;;;30.40;83.70;;;;;;5070696;28;20266;-73
2022/09/05 12:57:18;;;;;;;;;;;30.70;84.40;;;;;;5100840;28;19927;-74
2022/09/05 12:59:46;;;;;;;;;;;30.90;84.20;;;;;;5076954;28;20311;-76
2022/09/05 13:02:15;;;;;;;;;;;30.90;80.80;;;;;;5098659;28;19915;-74
2022/09/05 13:04:44;;;;;;;;;;;31.10;81.00;;;;;;5097528;28;19919;-75
2022/09/05 13:07:15;;;;;;;;;;;31.20;83.40;;;;;;5097645;28;19916;-76
2022/09/05 13:09:46;;;;;;;;;;;31.10;79.30;;;;;;5101334;28;19916;-75
2022/09/05 13:12:26;;;;;;;;;;;30.80;79.30;;;;;;5099870;28;19923;-75
2022/09/05 13:15:21;;;;;;;;;;;30.60;81.40;;;;;;5077135;28;19959;-75
2022/09/05 13:17:50;;;;;;;;;;;30.50;83.20;;;;;;5082992;28;19928;-74
2022/09/05 13:20:15;;;;;;;;;;;30.30;84.00;;;;;;5094586;28;19916;-75
2022/09/05 13:22:42;;;;;;;;;;;30.20;81.90;;;;;;5093683;28;19919;-74
2022/09/05 13:25:22;;;;;;;;;;;29.90;83.00;;;;;;5092553;28;19927;-74
2022/09/05 13:27:55;;;;;;;;;;;29.70;83.70;;;;;;5099522;28;19919;-75
2022/09/05 13:30:22;;;;;;;;;;;29.60;82.50;;;;;;5098814;28;19961;-74
2022/09/05 13:32:48;;;;;;;;;;;29.70;84.60;;;;;;5074947;28;19962;-76
2022/09/05 13:35:25;;;;;;;;;;;29.80;83.20;;;;;;5079324;28;20341;-75
2022/09/05 13:37:59;;;;;;;;;;;29.70;82.30;;;;;;5094890;28;19934;-74
2022/09/05 13:40:27;;;;;;;;;;;29.70;82.40;;;;;;5098756;28;19923;-74
2022/09/05 13:43:02;;;;;;;;;;;29.90;81.00;;;;;;5098116;28;20231;-75
2022/09/05 13:45:28;;;;;;;;;;;30.00;82.10;;;;;;5087604;28;20428;-76
2022/09/05 13:47:56;;;;;;;;;;;29.90;82.50;;;;;;5097415;28;19915;-76
2022/09/05 13:50:22;;;;;;;;;;;30.10;81.80;;;;;;5098008;28;19916;-75
2022/09/05 13:52:54;;;;;;;;;;;30.40;82.90;;;;;;5077371;28;19923;-74
2022/09/05 13:55:21;;;;;;;;;;;30.70;80.80;;;;;;5107135;27;20207;-75
2022/09/05 13:57:53;;;;;;;;;;;30.90;81.60;;;;;;5098377;28;19926;-74
2022/09/05 14:00:46;;;;;;;;;;;30.90;80.80;;;;;;5098686;28;20014;-75
2022/09/05 14:03:20;;;;;;;;;;;30.90;81.20;;;;;;5099272;28;19947;-74
2022/09/05 14:05:46;;;;;;;;;;;30.70;79.80;;;;;;5084140;28;19912;-75
2022/09/05 14:08:32;;;;;;;;;;;30.50;81.00;;;;;;5108949;28;20175;-74
2022/09/05 14:11:05;;;;;;;;;;;30.20;81.30;;;;;;5101146;28;20235;-75
2022/09/05 14:13:30;;;;;;;;;;;30.10;82.30;;;;;;5110497;28;19912;-74
2022/09/05 14:16:03;;;;;;;;;;;29.90;82.80;;;;;;5103644;28;20290;-74
2022/09/05 14:21:14;;;;;;;;;;;29.90;84.00;;;;;;5107201;28;20640;-74
2022/09/05 14:21:17;;;;;;;;;;;29.80;83.70;;;;;;5097958;28;20007;-74
2022/09/05 14:23:43;;;;;;;;;;;29.70;84.00;;;;;;5098404;28;19916;-74
2022/09/05 14:26:38;;;;;;;;;;;29.70;84.30;;;;;;5098473;28;20207;-74
2022/09/05 14:29:15;;;;;;;;;;;29.60;86.10;;;;;;5090482;28;20196;-74
2022/09/05 14:31:45;;;;;;;;;;;29.60;85.10;;;;;;5108351;28;19960;-72
2022/09/05 14:34:14;;;;;;;;;;;29.50;87.40;;;;;;5084469;28;20218;-72
2022/09/05 14:37:03;;;;;;;;;;;29.50;87.80;;;;;;5110580;28;19915;-72
2022/09/05 14:39:38;;;;;;;;;;;29.50;86.30;;;;;;5105608;28;20297;-73
2022/09/05 14:42:04;;;;;;;;;;;29.50;87.10;;;;;;5078847;28;19991;-73
2022/09/05 14:44:29;;;;;;;;;;;29.40;87.10;;;;;;5086220;28;19996;-71
2022/09/05 14:46:55;;;;;;;;;;;29.30;87.40;;;;;;5098685;28;19999;-72
2022/09/05 14:49:33;;;;;;;;;;;29.30;88.70;;;;;;5094677;28;20218;-72
2022/09/05 14:52:11;;;;;;;;;;;29.20;87.80;;;;;;5102075;28;19912;-73
2022/09/05 14:54:38;;;;;;;;;;;29.20;86.80;;;;;;5095953;28;19920;-74
2022/09/05 14:57:04;;;;;;;;;;;29.10;86.30;;;;;;5104406;28;19966;-73
2022/09/05 14:59:33;;;;;;;;;;;29.10;85.10;;;;;;5080763;28;19999;-73